WetterOnline ( https://www.wetteronline.de )

Wetter aktuell Kißlegg

Aktuelles Wetter: Leutkirch-Herlazhofen (671m)

6-stündlich | Neueste Meldungen
Ortszeit Temperatur Wetter
Sa, 28.11. 13:00 -1.0° C bedeckt
Sa, 28.11. 7:00 -3.6° C Nebel
Sa, 28.11. 1:00 -2.7° C Nebel
Fr, 27.11. 19:00 -0.8° C Nebel
Fr, 27.11. 13:00 6.0° C wolkenlos
Fr, 27.11. 7:00 -5.7° C wolkenlos
Fr, 27.11. 1:00 -4.7° C wolkenlos
Do, 26.11. 19:00 -2.0° C wolkenlos
Ortszeit Temperatur Wetter
Sa, 28.11. 18:30 -0.5° C wolkig
Sa, 28.11. 18:20 -0.5° C wolkig
Sa, 28.11. 18:10 -0.5° C wolkig
Sa, 28.11. 18:00 -0.5° C wolkig
Sa, 28.11. 17:50 -0.5° C bewölkt
Sa, 28.11. 17:40 -0.5° C bedeckt
Sa, 28.11. 17:30 -0.5° C bewölkt
Sa, 28.11. 17:00 -0.5° C bewölkt
Sa, 28.11. 16:30 -0.5° C bewölkt
Sa, 28.11. 16:00 -0.5° C bedeckt
Sa, 28.11. 15:30 -0.2° C bedeckt
Ortszeit Relative Feuchte Sichtweite
Sa, 28.11. 13:00 97% 12 km
Sa, 28.11. 7:00 98% 0.5 km
Sa, 28.11. 1:00 100% 0.2 km
Fr, 27.11. 19:00 99% 0.2 km
Fr, 27.11. 13:00 68% 35 km
Fr, 27.11. 7:00 94% 27 km
Fr, 27.11. 1:00 96% 12 km
Do, 26.11. 19:00 94% 13 km
Ortszeit Relative Feuchte Sichtweite
Sa, 28.11. 18:30 94% 16 km
Sa, 28.11. 18:20 94% -
Sa, 28.11. 18:10 94% -
Sa, 28.11. 18:00 94% 12 km
Sa, 28.11. 17:50 94% -
Sa, 28.11. 17:40 95% -
Sa, 28.11. 17:30 96% 6 km
Sa, 28.11. 17:00 95% 11 km
Sa, 28.11. 16:30 95% 11 km
Sa, 28.11. 16:00 95% 14 km
Sa, 28.11. 15:30 95% 14 km
Ortszeit Niederschlagsmenge Niederschlagsart
Sa, 28.11. 13:00 0.0 l/m2 in 6 Std. -
Sa, 28.11. 7:00 0.0 l/m2 in 12 Std. -
Sa, 28.11. 1:00 0.0 l/m2 in 6 Std. -
Fr, 27.11. 19:00 0.0 l/m2 in 12 Std. -
Fr, 27.11. 13:00 0.0 l/m2 in 6 Std. -
Fr, 27.11. 7:00 0.0 l/m2 in 12 Std. -
Fr, 27.11. 1:00 0.0 l/m2 in 6 Std. -
Do, 26.11. 19:00 0.0 l/m2 in 12 Std. -
Ortszeit Niederschlagsmenge Niederschlagsart
Sa, 28.11. 18:30 0.0 l/m2 in 1 Std. -
Sa, 28.11. 18:20 keine Meldung -
Sa, 28.11. 18:10 keine Meldung -
Sa, 28.11. 18:00 0.0 l/m2 in 1 Std. -
Sa, 28.11. 17:50 keine Meldung -
Sa, 28.11. 17:40 keine Meldung -
Sa, 28.11. 17:30 0.0 l/m2 in 1 Std. -
Sa, 28.11. 17:00 0.0 l/m2 in 1 Std. -
Sa, 28.11. 16:30 0.0 l/m2 in 1 Std. -
Sa, 28.11. 16:00 0.0 l/m2 in 1 Std. -
Sa, 28.11. 15:30 0.0 l/m2 in 1 Std. -
Ortszeit Stärke Spitze Richtung
km/h Bft. km/h Grad Sektor
Sa, 28.11. 13:00 7 2 22 20° N
Sa, 28.11. 7:00 9 2 15 50° NO
Sa, 28.11. 1:00 4 1 11 80° O
Fr, 27.11. 19:00 4 1 14 40° NO
Fr, 27.11. 13:00 6 1 9 340° N
Fr, 27.11. 7:00 0 0 7 - -
Fr, 27.11. 1:00 2 1 11 140° SO
Do, 26.11. 19:00 2 1 13 140° SO
Ortszeit Stärke Spitze Richtung
km/h Bft. km/h Grad Sektor
Sa, 28.11. 18:30 13 3 26 40° NO
Sa, 28.11. 18:20 13 3 - 40° NO
Sa, 28.11. 18:10 14 3 - 40° NO
Sa, 28.11. 18:00 13 3 26 40° NO
Sa, 28.11. 17:50 13 3 - 40° NO
Sa, 28.11. 17:40 13 3 - 40° NO
Sa, 28.11. 17:30 13 3 26 40° NO
Sa, 28.11. 17:00 13 3 30 40° NO
Sa, 28.11. 16:30 15 3 30 40° NO
Sa, 28.11. 16:00 14 3 29 30° NO
Sa, 28.11. 15:30 15 3 26 30° NO
Ortszeit Untergrenze Bedeckung Gattung
total tief tief mittel hoch
Sa, 28.11. 13:00 90 m 8/8 8/8 - - -
Sa, 28.11. 7:00 30 m 8/8 8/8 - - -
Sa, 28.11. 1:00 <30 m 8/8 0/8 - - -
Fr, 27.11. 19:00 <30 m 8/8 0/8 - - -
Fr, 27.11. 13:00 - 0/8 0/8 - - -
Fr, 27.11. 7:00 - 0/8 0/8 - - -
Fr, 27.11. 1:00 - 0/8 0/8 - - -
Do, 26.11. 19:00 - 0/8 0/8 - - -
Ortszeit Bedeckungsgrad in Achtel und Wolkenuntergrenze
Sa, 28.11. 18:30 6(180m)
Sa, 28.11. 18:20 6(180m)
Sa, 28.11. 18:10 6(180m)
Sa, 28.11. 18:00 7(120m) 5(240m)
Sa, 28.11. 17:50 7(120m)
Sa, 28.11. 17:40 7(90m) 8(240m)
Sa, 28.11. 17:30 7(90m)
Sa, 28.11. 17:00 7(120m)
Sa, 28.11. 16:30 7(120m)
Sa, 28.11. 16:00 8(120m)
Sa, 28.11. 15:30 8(90m)
Ortszeit Luftdruck NN (hPa) Tendenz (hPa in 3 Std.)
Sa, 28.11. 13:00 1020 - 1,2
Sa, 28.11. 7:00 1022 - 0,4
Sa, 28.11. 1:00 1023 - 0,5
Fr, 27.11. 19:00 1022 + 0,3
Fr, 27.11. 13:00 1021 - 1,3
Fr, 27.11. 7:00 1026 - 0,4
Fr, 27.11. 1:00 1026 - 0,2
Do, 26.11. 19:00 1025 + 0,3
Ortszeit Luftdruck NN (hPa) Tendenz (hPa in 3 Std.)
Sa, 28.11. 18:30 1020 + 0,3
Sa, 28.11. 18:20 1020 keine Meldung
Sa, 28.11. 18:10 1020 keine Meldung
Sa, 28.11. 18:00 1019 + 0,1
Sa, 28.11. 17:50 1019 keine Meldung
Sa, 28.11. 17:40 1019 keine Meldung
Sa, 28.11. 17:30 1019 - 0,2
Sa, 28.11. 17:00 1019 - 0,4
Sa, 28.11. 16:30 1019 - 0,7
Sa, 28.11. 16:00 1019 - 0,7
Sa, 28.11. 15:30 1019 - 1,1
Ortszeit Schneehöhe (cm)
Sa, 28.11. 13:00 0
Sa, 28.11. 7:00 0
Sa, 28.11. 1:00 0
Fr, 27.11. 19:00 0
Fr, 27.11. 13:00 0
Fr, 27.11. 7:00 0
Fr, 27.11. 1:00 0
Do, 26.11. 19:00 0
Ortszeit Schneehöhe (cm)
Sa, 28.11. 18:30 0
Sa, 28.11. 18:20 0
Sa, 28.11. 18:10 0
Sa, 28.11. 18:00 0
Sa, 28.11. 17:50 0
Sa, 28.11. 17:40 0
Sa, 28.11. 17:30 0
Sa, 28.11. 17:00 0
Sa, 28.11. 16:30 0
Sa, 28.11. 16:00 0
Sa, 28.11. 15:30 0
Link zu dieser Seite / Seite empfehlen

Das Wetter in ...